Heisson, Washington
Current Conditions -  °F | °C
As of 2:53 PM on Saturday 25 Oct 2014 (Local Time) from KVUO Reporting Station
Overcast Overcast  
Wind Chill: 63°   Ceiling: 7000
Heat Index: 63°   Visibility: 10mi
Dew Point: 51°   Wind: 14mph
Humidity: 65%   Direction: 170°S
Pressure: 29.38"   Gusts: 28mph
Location:  45.82°N, 122.49°W
Report Text: KVUO 252153Z AUTO 17012G24KT 10SM SCT041 BKN070 OVC080 17/11 A2938 RMK AO2 PK WND 18029/2131 SLP950 T01720106
Loading
Personal Weather Stations






























Interactive Weather Map
Tropical Storm Tracking
New forecast layout! Learn more

10-Day Weather Forecast

Advertisements
Track Severe Weather on mobile